createdAt,value
2018-01-11T00:00:17.835Z,34.03
2018-01-11T00:01:22.302Z,37.65
2018-01-11T00:02:27.548Z,33.17
2018-01-11T00:03:32.817Z,31.02
2018-01-11T00:04:37.280Z,28.50
2018-01-11T00:05:42.548Z,28.05
2018-01-11T00:06:47.042Z,29.85
2018-01-11T00:07:51.510Z,32.55
2018-01-11T00:08:55.982Z,29.58
2018-01-11T00:10:00.457Z,30.60
2018-01-11T00:11:05.715Z,30.10
2018-01-11T00:12:10.189Z,28.25
2018-01-11T00:13:14.668Z,33.83
2018-01-11T00:14:19.154Z,30.20
2018-01-11T00:15:23.621Z,27.92
2018-01-11T00:16:28.906Z,31.87
2018-01-11T00:17:33.389Z,33.38
2018-01-11T00:18:38.159Z,29.90
2018-01-11T00:19:42.666Z,28.10
2018-01-11T00:20:47.148Z,30.02
2018-01-11T00:21:51.678Z,31.90
2018-01-11T00:22:56.146Z,28.80
2018-01-11T00:24:01.370Z,27.70
2018-01-11T00:25:06.608Z,27.62
2018-01-11T00:26:11.842Z,30.67
2018-01-11T00:27:16.352Z,27.33
2018-01-11T00:28:20.843Z,28.20
2018-01-11T00:29:26.079Z,26.67
2018-01-11T00:30:31.310Z,30.00
2018-01-11T00:31:36.631Z,30.23
2018-01-11T00:32:41.245Z,27.20
2018-01-11T00:33:45.814Z,30.17
2018-01-11T00:34:50.565Z,29.50
2018-01-11T00:35:55.087Z,25.17
2018-01-11T00:36:59.553Z,28.77
2018-01-11T00:38:04.055Z,24.73
2018-01-11T00:39:08.537Z,28.75
2018-01-11T00:40:13.760Z,26.45
2018-01-11T00:41:19.003Z,27.27
2018-01-11T00:42:24.305Z,27.90
2018-01-11T00:43:29.212Z,33.25
2018-01-11T00:44:33.673Z,26.23
2018-01-11T00:45:38.161Z,26.10
2018-01-11T00:46:42.626Z,27.27
2018-01-11T00:47:47.089Z,29.67
2018-01-11T00:48:52.405Z,31.45
2018-01-11T00:49:56.880Z,25.75
2018-01-11T00:51:01.342Z,26.37
2018-01-11T00:52:06.589Z,29.42
2018-01-11T00:53:11.847Z,26.05
2018-01-11T00:54:16.348Z,28.08
2018-01-11T00:55:20.841Z,26.60
2018-01-11T00:56:26.070Z,35.00
2018-01-11T00:57:30.538Z,29.08
2018-01-11T00:58:35.320Z,25.52
2018-01-11T00:59:39.820Z,26.50
2018-01-11T01:00:44.298Z,26.70
2018-01-11T01:01:48.766Z,25.65
2018-01-11T01:02:53.227Z,23.17
2018-01-11T01:03:58.462Z,32.28
2018-01-11T01:05:03.741Z,23.40
2018-01-11T01:06:08.225Z,23.98
2018-01-11T01:07:13.010Z,27.33
2018-01-11T01:08:17.474Z,27.62
2018-01-11T01:09:21.945Z,27.33
2018-01-11T01:10:27.499Z,23.33
2018-01-11T01:11:31.986Z,28.65
2018-01-11T01:12:36.473Z,24.95
2018-01-11T01:13:40.941Z,26.85
2018-01-11T01:14:45.429Z,29.23
2018-01-11T01:15:50.706Z,29.80
2018-01-11T01:16:55.607Z,26.90
2018-01-11T01:18:00.089Z,26.20
2018-01-11T01:19:05.113Z,26.65
2018-01-11T01:20:10.376Z,26.30
2018-01-11T01:21:14.889Z,29.25
2018-01-11T01:22:19.355Z,25.98
2018-01-11T01:23:23.840Z,27.10
2018-01-11T01:24:28.325Z,29.83
2018-01-11T01:25:33.069Z,32.70
2018-01-11T01:26:37.572Z,27.33
2018-01-11T01:27:42.026Z,26.20
2018-01-11T01:28:47.304Z,28.87
2018-01-11T01:29:51.784Z,33.13
2018-01-11T01:30:57.044Z,28.38
2018-01-11T01:32:01.548Z,25.73
2018-01-11T01:33:06.016Z,25.05
2018-01-11T01:34:10.478Z,27.83
2018-01-11T01:35:14.943Z,28.92
2018-01-11T01:36:20.192Z,25.75
2018-01-11T01:37:25.454Z,24.10
2018-01-11T01:38:29.940Z,29.23
2018-01-11T01:39:34.415Z,28.17
2018-01-11T01:40:39.665Z,24.63
2018-01-11T01:41:44.934Z,25.23
2018-01-11T01:42:49.575Z,25.85
2018-01-11T01:43:54.046Z,30.12
2018-01-11T01:44:58.533Z,24.85
2018-01-11T01:46:03.760Z,29.70
2018-01-11T01:47:09.008Z,29.87
2018-01-11T01:48:13.513Z,25.50
2018-01-11T01:49:18.740Z,24.23
2018-01-11T01:50:23.660Z,23.67
2018-01-11T01:51:28.902Z,22.90
2018-01-11T01:52:33.373Z,23.90
2018-01-11T01:53:37.891Z,21.98
2018-01-11T01:54:43.140Z,22.98
2018-01-11T01:55:48.448Z,22.27
2018-01-11T01:56:52.910Z,23.95
2018-01-11T01:57:57.408Z,24.27
2018-01-11T01:59:01.908Z,21.15
2018-01-11T02:00:07.157Z,26.05
2018-01-11T02:01:11.618Z,27.05
2018-01-11T02:02:16.086Z,24.40
2018-01-11T02:03:20.546Z,25.55
2018-01-11T02:04:25.043Z,26.50
2018-01-11T02:05:29.514Z,22.08
2018-01-11T02:06:33.986Z,20.02
2018-01-11T02:07:38.132Z,25.00
2018-01-11T02:08:42.626Z,21.35
2018-01-11T02:09:47.873Z,25.90
2018-01-11T02:10:52.856Z,26.00
2018-01-11T02:11:58.131Z,32.30
2018-01-11T02:13:02.700Z,25.48
2018-01-11T02:14:07.926Z,27.75
2018-01-11T02:15:12.414Z,22.05
2018-01-11T02:16:16.882Z,24.12
2018-01-11T02:17:21.354Z,20.08
2018-01-11T02:18:25.849Z,21.10
2018-01-11T02:19:29.982Z,27.37
2018-01-11T02:20:35.238Z,25.40
2018-01-11T02:21:39.725Z,22.40
2018-01-11T02:22:44.972Z,24.25
2018-01-11T02:23:49.442Z,21.25
2018-01-11T02:24:53.909Z,19.20
2018-01-11T02:25:58.406Z,25.92
2018-01-11T02:27:02.888Z,24.30
2018-01-11T02:28:07.363Z,35.25
2018-01-11T02:30:27.408Z,41.78
2018-01-11T02:31:31.898Z,35.70
2018-01-11T02:32:37.161Z,36.55
2018-01-11T02:33:41.627Z,33.88
2018-01-11T02:34:46.140Z,61.60
2018-01-11T02:35:51.389Z,61.72
2018-01-11T02:36:55.899Z,74.45
2018-01-11T02:38:01.142Z,74.20
2018-01-11T02:39:06.394Z,85.57
2018-01-11T02:40:10.886Z,97.43
2018-01-11T02:41:16.157Z,120.15
2018-01-11T02:42:20.648Z,96.15
2018-01-11T02:43:25.109Z,90.85
2018-01-11T02:44:29.599Z,87.05
2018-01-11T02:45:34.070Z,68.10
2018-01-11T02:46:38.542Z,63.75
2018-01-11T02:47:43.032Z,55.05
2018-01-11T02:48:47.505Z,55.33
2018-01-11T02:49:51.961Z,53.78
2018-01-11T02:50:56.452Z,56.17
2018-01-11T02:52:00.943Z,47.13
2018-01-11T02:53:05.466Z,50.58
2018-01-11T02:54:09.948Z,46.37
2018-01-11T02:55:15.193Z,55.90
2018-01-11T02:56:19.659Z,47.78
2018-01-11T02:57:24.139Z,46.63
2018-01-11T02:58:28.646Z,48.10
2018-01-11T02:59:33.124Z,44.95
2018-01-11T03:00:38.381Z,46.72
2018-01-11T03:01:42.844Z,42.97
2018-01-11T03:02:48.074Z,40.83
2018-01-11T03:03:52.588Z,52.90
2018-01-11T03:04:57.072Z,46.22
2018-01-11T03:06:01.556Z,45.70
2018-01-11T03:07:06.041Z,39.10
2018-01-11T03:08:10.514Z,38.35
2018-01-11T03:09:15.016Z,39.03
2018-01-11T03:10:19.514Z,38.97
2018-01-11T03:11:24.017Z,35.60
2018-01-11T03:12:28.483Z,44.33
2018-01-11T03:13:32.975Z,40.50
2018-01-11T03:14:37.484Z,35.60
2018-01-11T03:15:41.960Z,38.40
2018-01-11T03:16:46.426Z,30.85
2018-01-11T03:17:51.692Z,36.47
2018-01-11T03:18:56.168Z,36.42
2018-01-11T03:20:00.674Z,35.38
2018-01-11T03:21:05.171Z,32.47
2018-01-11T03:22:09.637Z,37.47
2018-01-11T03:23:14.128Z,30.20
2018-01-11T03:24:19.349Z,29.58
2018-01-11T03:25:24.619Z,30.55
2018-01-11T03:26:29.082Z,28.85
2018-01-11T03:27:33.576Z,29.67
2018-01-11T03:28:38.497Z,28.60
2018-01-11T03:29:42.987Z,33.35
2018-01-11T03:30:47.504Z,28.87
2018-01-11T03:31:51.997Z,30.25
2018-01-11T03:32:56.474Z,32.65
2018-01-11T03:34:01.728Z,30.70
2018-01-11T03:35:06.195Z,31.00
2018-01-11T03:36:10.709Z,35.58
2018-01-11T03:37:16.706Z,32.95
2018-01-11T03:38:21.274Z,32.88
2018-01-11T03:39:25.768Z,29.42
2018-01-11T03:40:30.257Z,25.08
2018-01-11T03:41:34.757Z,24.85
2018-01-11T03:42:39.238Z,28.87
2018-01-11T03:43:44.469Z,33.15
2018-01-11T03:44:49.706Z,32.90
2018-01-11T03:45:54.943Z,24.58
2018-01-11T03:46:59.475Z,27.92
2018-01-11T03:48:03.973Z,26.37
2018-01-11T03:49:08.502Z,23.83
2018-01-11T03:50:12.974Z,24.12
2018-01-11T03:51:18.205Z,30.67
2018-01-11T03:52:23.488Z,26.55
2018-01-11T03:53:27.959Z,30.98
2018-01-11T03:54:32.439Z,25.52
2018-01-11T03:55:36.928Z,28.92
2018-01-11T03:56:41.398Z,29.92
2018-01-11T03:57:45.897Z,28.48
2018-01-11T03:58:51.135Z,29.25
2018-01-11T03:59:55.602Z,29.75
2018-01-11T04:01:00.096Z,31.05
2018-01-11T04:02:04.231Z,27.83
2018-01-11T04:03:10.245Z,28.80
2018-01-11T04:04:14.697Z,29.37
2018-01-11T04:05:19.934Z,30.95
2018-01-11T04:06:25.171Z,30.50
2018-01-11T04:07:30.436Z,25.67
2018-01-11T04:08:34.663Z,27.25
2018-01-11T04:09:39.121Z,28.48
2018-01-11T04:10:43.602Z,30.40
2018-01-11T04:11:48.093Z,27.20
2018-01-11T04:12:52.576Z,24.40
2018-01-11T04:13:57.104Z,30.42
2018-01-11T04:15:01.614Z,29.00
2018-01-11T04:16:06.087Z,33.22
2018-01-11T04:17:11.336Z,32.05
2018-01-11T04:18:16.849Z,27.83
2018-01-11T04:19:22.116Z,28.83
2018-01-11T04:20:26.583Z,32.67
2018-01-11T04:21:31.050Z,27.45
2018-01-11T04:22:35.541Z,36.35
2018-01-11T04:23:40.050Z,29.00
2018-01-11T04:24:44.576Z,37.75
2018-01-11T04:25:49.045Z,29.77
2018-01-11T04:26:54.279Z,30.77
2018-01-11T04:27:59.592Z,30.23
2018-01-11T04:29:05.587Z,33.95
2018-01-11T04:30:10.102Z,33.90
2018-01-11T04:31:14.593Z,36.53
2018-01-11T04:32:19.822Z,31.73
2018-01-11T04:33:24.301Z,35.33
2018-01-11T04:34:28.849Z,33.88
2018-01-11T04:35:33.646Z,34.58
2018-01-11T04:36:38.906Z,34.67
2018-01-11T04:37:43.377Z,36.20
2018-01-11T04:38:47.876Z,36.60
2018-01-11T04:39:52.382Z,37.58
2018-01-11T04:40:56.846Z,33.03
2018-01-11T04:42:01.332Z,31.58
2018-01-11T04:43:05.830Z,34.53
2018-01-11T04:44:10.306Z,37.15
2018-01-11T04:45:14.825Z,33.85
2018-01-11T04:46:19.302Z,34.17
2018-01-11T04:47:23.862Z,32.88
2018-01-11T04:48:28.330Z,36.47
2018-01-11T04:49:32.798Z,32.70
2018-01-11T04:50:38.085Z,37.35
2018-01-11T04:51:42.565Z,34.97
2018-01-11T04:52:47.854Z,33.20
2018-01-11T04:53:52.336Z,30.60
2018-01-11T04:54:56.616Z,32.30
2018-01-11T04:56:01.873Z,37.90
2018-01-11T04:57:06.384Z,31.20
2018-01-11T04:58:10.883Z,32.20
2018-01-11T04:59:15.358Z,30.48
2018-01-11T05:00:19.827Z,29.58
2018-01-11T05:01:24.332Z,35.58
2018-01-11T05:02:28.805Z,38.90
2018-01-11T05:03:33.312Z,35.60
2018-01-11T05:04:37.782Z,36.53
2018-01-11T05:05:42.276Z,32.97
2018-01-11T05:06:46.767Z,31.60
2018-01-11T05:07:52.038Z,36.42
2018-01-11T05:08:56.510Z,32.28
2018-01-11T05:10:01.743Z,36.42
2018-01-11T05:11:06.236Z,37.90
2018-01-11T05:12:11.602Z,34.58
2018-01-11T05:13:16.074Z,38.15
2018-01-11T05:14:20.534Z,39.00
2018-01-11T05:15:25.010Z,37.92
2018-01-11T05:16:30.249Z,36.67
2018-01-11T05:17:35.518Z,39.70
2018-01-11T05:18:39.985Z,35.50
2018-01-11T05:19:45.244Z,33.40
2018-01-11T05:20:49.714Z,39.88
2018-01-11T05:21:54.953Z,35.22
2018-01-11T05:23:00.240Z,40.78
2018-01-11T05:24:04.716Z,40.80
2018-01-11T05:25:09.202Z,39.30
2018-01-11T05:26:13.661Z,38.72
2018-01-11T05:27:18.160Z,37.67
2018-01-11T05:28:22.657Z,36.35
2018-01-11T05:29:27.199Z,39.08
2018-01-11T05:30:31.683Z,42.40
2018-01-11T05:31:36.181Z,37.13
2018-01-11T05:32:41.415Z,43.65
2018-01-11T05:33:45.938Z,36.83
2018-01-11T05:34:50.405Z,36.47
2018-01-11T05:35:54.908Z,38.08
2018-01-11T05:36:59.371Z,44.35
2018-01-11T05:38:03.842Z,37.63
2018-01-11T05:39:09.863Z,39.03
2018-01-11T05:40:14.321Z,35.83
2018-01-11T05:41:19.553Z,39.20
2018-01-11T05:42:24.791Z,40.20
2018-01-11T05:43:29.104Z,37.00
2018-01-11T05:44:34.373Z,38.05
2018-01-11T05:45:38.852Z,38.45
2018-01-11T05:46:43.325Z,37.58
2018-01-11T05:47:47.853Z,41.20
2018-01-11T05:48:53.113Z,41.47
2018-01-11T05:49:57.614Z,38.97
2018-01-11T05:51:02.074Z,42.95
2018-01-11T05:52:06.548Z,42.92
2018-01-11T05:53:10.834Z,35.50
2018-01-11T05:54:16.076Z,48.78
2018-01-11T05:55:20.601Z,33.80
2018-01-11T05:56:25.078Z,39.42
2018-01-11T05:57:30.317Z,39.72
2018-01-11T05:58:35.570Z,44.92
2018-01-11T05:59:40.058Z,41.37
2018-01-11T06:00:45.318Z,49.50
2018-01-11T06:01:49.788Z,49.63
2018-01-11T06:02:55.041Z,39.67
2018-01-11T06:03:59.514Z,45.63
2018-01-11T06:05:04.009Z,45.95
2018-01-11T06:06:08.520Z,43.60
2018-01-11T06:07:13.437Z,49.13
2018-01-11T06:08:17.924Z,48.65
2018-01-11T06:09:22.403Z,45.75
2018-01-11T06:10:27.634Z,46.70
2018-01-11T06:11:32.895Z,51.75
2018-01-11T06:12:37.358Z,40.28
2018-01-11T06:13:41.817Z,49.22
2018-01-11T06:14:46.373Z,47.30
2018-01-11T06:15:51.609Z,47.53
2018-01-11T06:16:56.126Z,47.28
2018-01-11T06:18:00.643Z,45.08
2018-01-11T06:19:04.814Z,43.03
2018-01-11T06:20:09.292Z,43.13
2018-01-11T06:21:13.754Z,41.13
2018-01-11T06:22:19.028Z,39.75
2018-01-11T06:23:23.512Z,41.72
2018-01-11T06:24:28.742Z,40.17
2018-01-11T06:25:33.982Z,40.83
2018-01-11T06:26:38.684Z,44.97
2018-01-11T06:27:43.943Z,37.70
2018-01-11T06:28:48.493Z,46.17
2018-01-11T06:29:53.130Z,45.78
2018-01-11T06:30:57.612Z,41.78
2018-01-11T06:32:02.317Z,41.40
2018-01-11T06:33:06.836Z,49.90
2018-01-11T06:34:11.330Z,39.85
2018-01-11T06:35:15.807Z,46.28
2018-01-11T06:36:21.056Z,41.90
2018-01-11T06:37:26.282Z,40.15
2018-01-11T06:38:31.556Z,38.95
2018-01-11T06:39:36.022Z,42.15
2018-01-11T06:40:41.296Z,43.20
2018-01-11T06:41:45.779Z,43.22
2018-01-11T06:42:50.262Z,40.38
2018-01-11T06:43:55.526Z,41.22
2018-01-11T06:44:59.998Z,41.75
2018-01-11T06:46:05.231Z,41.70
2018-01-11T06:47:10.476Z,37.63
2018-01-11T06:48:15.718Z,42.03
2018-01-11T06:49:20.297Z,40.22
2018-01-11T06:50:24.772Z,38.95
2018-01-11T06:51:29.242Z,45.88
2018-01-11T06:52:34.489Z,42.85
2018-01-11T06:53:38.954Z,43.83
2018-01-11T06:54:43.443Z,49.90
2018-01-11T06:55:47.910Z,47.10
2018-01-11T06:56:52.386Z,38.78
2018-01-11T06:57:56.852Z,40.15
2018-01-11T06:59:01.338Z,41.90
2018-01-11T07:00:06.589Z,39.55
2018-01-11T07:01:11.084Z,37.47
2018-01-11T07:02:16.348Z,35.45
2018-01-11T07:03:20.828Z,39.17
2018-01-11T07:04:25.290Z,40.30
2018-01-11T07:05:29.810Z,40.42
2018-01-11T07:06:35.038Z,44.22
2018-01-11T07:07:39.498Z,38.00
2018-01-11T07:08:43.964Z,39.72
2018-01-11T07:09:48.442Z,43.15
2018-01-11T07:10:52.781Z,41.67
2018-01-11T07:11:57.246Z,38.78
2018-01-11T07:13:01.736Z,33.05
2018-01-11T07:14:06.784Z,38.83
2018-01-11T07:15:11.273Z,35.67
2018-01-11T07:16:16.560Z,34.85
2018-01-11T07:17:20.856Z,30.60
2018-01-11T07:18:25.788Z,32.70
2018-01-11T07:19:30.268Z,29.75
2018-01-11T07:20:34.770Z,31.42
2018-01-11T07:21:39.269Z,31.48
2018-01-11T07:22:43.760Z,34.22
2018-01-11T07:23:48.234Z,29.10
2018-01-11T07:24:52.703Z,33.78
2018-01-11T07:25:57.955Z,34.85
2018-01-11T07:27:02.541Z,34.22
2018-01-11T07:28:07.782Z,38.92
2018-01-11T07:29:12.068Z,33.55
2018-01-11T07:30:17.340Z,36.05
2018-01-11T07:31:21.945Z,34.35
2018-01-11T07:32:26.446Z,35.42
2018-01-11T07:33:30.923Z,29.95
2018-01-11T07:34:36.191Z,35.75
2018-01-11T07:35:40.712Z,31.60
2018-01-11T07:36:45.186Z,34.00
2018-01-11T07:37:49.704Z,33.92
2018-01-11T07:38:54.946Z,36.92
2018-01-11T07:39:59.418Z,33.08
2018-01-11T07:41:03.892Z,29.90
2018-01-11T07:42:08.366Z,35.67
2018-01-11T07:43:13.629Z,31.20
2018-01-11T07:44:18.121Z,30.23
2018-01-11T07:45:23.380Z,30.20
2018-01-11T07:46:27.838Z,39.75
2018-01-11T07:47:33.070Z,30.15
2018-01-11T07:48:37.589Z,31.55
2018-01-11T07:49:42.841Z,37.17
2018-01-11T07:50:48.093Z,41.88
2018-01-11T07:51:52.580Z,37.95
2018-01-11T07:52:57.059Z,35.72
2018-01-11T07:54:01.547Z,37.60
2018-01-11T07:55:06.033Z,36.40
2018-01-11T07:56:10.525Z,41.70
2018-01-11T07:57:15.768Z,41.28
2018-01-11T07:58:20.315Z,42.58
2018-01-11T07:59:24.820Z,41.67
2018-01-11T08:00:29.286Z,46.08
2018-01-11T08:01:34.526Z,39.88
2018-01-11T08:02:39.013Z,37.25
2018-01-11T08:03:43.500Z,40.10
2018-01-11T08:04:47.992Z,39.03
2018-01-11T08:05:52.463Z,35.70
2018-01-11T08:06:56.929Z,37.78
2018-01-11T08:08:01.403Z,34.33
2018-01-11T08:09:05.210Z,34.88
2018-01-11T08:10:09.705Z,34.45
2018-01-11T08:11:14.208Z,35.88
2018-01-11T08:12:18.675Z,33.40
2018-01-11T08:13:23.146Z,37.75
2018-01-11T08:14:27.598Z,42.47
2018-01-11T08:15:33.625Z,38.05
2018-01-11T08:16:38.107Z,37.08
2018-01-11T08:17:42.402Z,37.67
2018-01-11T08:18:47.649Z,35.00
2018-01-11T08:19:52.116Z,29.55
2018-01-11T08:20:56.619Z,37.72
2018-01-11T08:22:01.091Z,35.53
2018-01-11T08:23:05.553Z,40.47
2018-01-11T08:24:10.818Z,39.53
2018-01-11T08:25:15.285Z,39.75
2018-01-11T08:26:19.895Z,33.92
2018-01-11T08:27:24.359Z,40.10
2018-01-11T08:28:28.822Z,33.65
2018-01-11T08:29:33.292Z,33.78
2018-01-11T08:30:37.781Z,34.10
2018-01-11T08:31:43.038Z,37.88
2018-01-11T08:32:47.525Z,33.45
2018-01-11T08:33:52.023Z,32.20
2018-01-11T08:34:57.276Z,35.30
2018-01-11T08:36:01.813Z,41.10
2018-01-11T08:37:06.304Z,40.25
2018-01-11T08:38:10.790Z,39.00
2018-01-11T08:39:16.034Z,42.22
2018-01-11T08:40:20.525Z,33.00
2018-01-11T08:41:25.784Z,38.83
2018-01-11T08:42:30.850Z,32.15
2018-01-11T08:43:35.305Z,32.95
2018-01-11T08:44:40.554Z,35.85
2018-01-11T08:45:45.034Z,34.53
2018-01-11T08:46:50.262Z,31.85
2018-01-11T08:47:55.539Z,35.88
2018-01-11T08:48:59.997Z,33.25
2018-01-11T08:50:05.237Z,37.20
2018-01-11T08:51:10.474Z,34.72
2018-01-11T08:52:15.720Z,31.20
2018-01-11T08:53:20.235Z,33.38
2018-01-11T08:54:24.790Z,34.53
2018-01-11T08:55:29.272Z,31.12
2018-01-11T08:56:33.759Z,37.17
2018-01-11T08:57:38.230Z,38.28
2018-01-11T08:58:42.741Z,40.50
2018-01-11T08:59:47.212Z,33.95
2018-01-11T09:00:51.678Z,33.80
2018-01-11T09:01:56.161Z,33.40
2018-01-11T09:03:00.646Z,39.45
2018-01-11T09:04:05.157Z,37.28
2018-01-11T09:05:09.622Z,38.15
2018-01-11T09:06:14.101Z,39.95
2018-01-11T09:07:18.581Z,38.03
2018-01-11T09:08:23.048Z,32.67
2018-01-11T09:09:27.562Z,33.65
2018-01-11T09:10:32.031Z,36.60
2018-01-11T09:11:36.512Z,33.13
2018-01-11T09:12:41.772Z,31.75
2018-01-11T09:13:46.251Z,28.52
2018-01-11T09:14:51.924Z,29.80
2018-01-11T09:15:56.401Z,35.92
2018-01-11T09:17:01.661Z,30.42
2018-01-11T09:18:06.142Z,30.23
2018-01-11T09:19:11.194Z,27.20
2018-01-11T09:20:15.693Z,25.45
2018-01-11T09:21:20.185Z,30.30
2018-01-11T09:22:25.419Z,33.22
2018-01-11T09:23:30.800Z,29.65
2018-01-11T09:24:35.258Z,26.62
2018-01-11T09:25:40.526Z,29.77
2018-01-11T09:26:45.002Z,29.70
2018-01-11T09:27:50.230Z,25.00
2018-01-11T09:28:55.470Z,26.42
2018-01-11T09:30:00.717Z,25.52
2018-01-11T09:31:05.196Z,30.42
2018-01-11T09:32:09.666Z,25.67
2018-01-11T09:33:14.158Z,24.52
2018-01-11T09:34:18.644Z,25.83
2018-01-11T09:35:23.889Z,27.10
2018-01-11T09:36:28.238Z,24.95
2018-01-11T09:37:32.697Z,27.73
2018-01-11T09:38:37.960Z,31.35
2018-01-11T09:39:42.484Z,24.60
2018-01-11T09:40:46.951Z,23.15
2018-01-11T09:41:52.309Z,27.37
2018-01-11T09:42:56.785Z,31.70
2018-01-11T09:44:01.823Z,23.15
2018-01-11T09:45:06.927Z,29.90
2018-01-11T09:46:11.773Z,22.45
2018-01-11T09:47:17.346Z,25.00
2018-01-11T09:48:21.853Z,27.98
2018-01-11T09:49:26.344Z,30.65
2018-01-11T09:50:30.832Z,25.45
2018-01-11T09:51:35.725Z,27.30
2018-01-11T09:52:40.236Z,23.95
2018-01-11T09:53:44.702Z,24.95
2018-01-11T09:54:49.187Z,28.05
2018-01-11T09:55:54.436Z,30.35
2018-01-11T09:56:58.897Z,26.70
2018-01-11T09:58:03.390Z,29.15
2018-01-11T09:59:07.862Z,32.13
2018-01-11T10:00:12.370Z,26.85
2018-01-11T10:01:17.599Z,30.83
2018-01-11T10:02:21.930Z,29.37
2018-01-11T10:03:26.438Z,31.10
2018-01-11T10:04:30.934Z,28.90
2018-01-11T10:05:35.417Z,32.80
2018-01-11T10:06:39.914Z,33.58
2018-01-11T10:07:44.394Z,30.73
2018-01-11T10:08:48.908Z,30.35
2018-01-11T10:09:53.424Z,34.10
2018-01-11T10:10:57.912Z,32.72
2018-01-11T10:12:02.406Z,29.20
2018-01-11T10:13:07.662Z,31.67
2018-01-11T10:14:12.196Z,31.80
2018-01-11T10:15:16.674Z,33.78
2018-01-11T10:16:21.213Z,30.98
2018-01-11T10:17:25.700Z,28.20
2018-01-11T10:18:30.155Z,34.75
2018-01-11T10:19:34.671Z,35.15
2018-01-11T10:20:39.140Z,29.45
2018-01-11T10:21:43.446Z,33.53
2018-01-11T10:22:47.996Z,35.22
2018-01-11T10:23:52.485Z,31.85
2018-01-11T10:24:56.783Z,35.35
2018-01-11T10:26:01.280Z,36.47
2018-01-11T10:27:06.548Z,41.45
2018-01-11T10:28:11.006Z,38.58
2018-01-11T10:29:16.247Z,35.70
2018-01-11T10:30:21.536Z,38.17
2018-01-11T10:31:26.007Z,30.88
2018-01-11T10:32:30.475Z,31.35
2018-01-11T10:33:34.979Z,34.20
2018-01-11T10:34:39.450Z,34.42
2018-01-11T10:35:43.949Z,38.95
2018-01-11T10:36:48.427Z,36.65
2018-01-11T10:37:52.906Z,40.20
2018-01-11T10:38:57.055Z,39.50
2018-01-11T10:40:01.526Z,34.28
2018-01-11T10:41:06.010Z,39.55
2018-01-11T10:42:10.499Z,39.03
2018-01-11T10:43:15.788Z,40.38
2018-01-11T10:44:20.474Z,42.30
2018-01-11T10:45:24.957Z,40.45
2018-01-11T10:46:30.213Z,43.60
2018-01-11T10:47:34.737Z,40.80
2018-01-11T10:48:39.202Z,39.22
2018-01-11T10:49:44.456Z,40.08
2018-01-11T10:50:48.952Z,39.47
2018-01-11T10:51:54.224Z,43.33
2018-01-11T10:52:58.706Z,40.40
2018-01-11T10:54:03.201Z,46.90
2018-01-11T10:55:08.452Z,41.17
2018-01-11T10:56:12.934Z,40.90
2018-01-11T10:57:18.230Z,39.67
2018-01-11T10:58:22.724Z,47.17
2018-01-11T10:59:27.207Z,37.95
2018-01-11T11:00:37.268Z,39.75
2018-01-11T11:01:47.220Z,33.80
2018-01-11T11:02:51.739Z,34.42
2018-01-11T11:03:56.228Z,30.30
2018-01-11T11:05:00.711Z,37.30
2018-01-11T11:06:05.945Z,34.10
2018-01-11T11:07:10.457Z,40.33
2018-01-11T11:08:15.845Z,30.48
2018-01-11T11:09:20.323Z,33.03
2018-01-11T11:10:24.981Z,34.75
2018-01-11T11:11:29.456Z,33.53
2018-01-11T11:12:33.945Z,33.90
2018-01-11T11:13:39.202Z,30.45
2018-01-11T11:14:43.698Z,27.80
2018-01-11T11:15:48.080Z,29.75
2018-01-11T11:16:53.334Z,27.45
2018-01-11T11:17:57.815Z,28.48
2018-01-11T11:19:02.334Z,25.23
2018-01-11T11:20:07.579Z,30.02
2018-01-11T11:21:12.162Z,29.83
2018-01-11T11:22:17.400Z,24.83
2018-01-11T11:23:21.989Z,26.92
2018-01-11T11:24:26.508Z,28.70
2018-01-11T11:25:31.010Z,26.17
2018-01-11T11:26:35.526Z,28.27
2018-01-11T11:27:40.034Z,28.45
2018-01-11T11:28:44.502Z,30.52
2018-01-11T11:29:49.033Z,29.08
2018-01-11T11:30:53.518Z,29.55
2018-01-11T11:31:58.774Z,31.33
2018-01-11T11:33:03.256Z,29.05
2018-01-11T11:34:08.493Z,29.00
2018-01-11T11:35:13.068Z,28.40
2018-01-11T11:36:17.541Z,27.67
2018-01-11T11:37:22.014Z,33.33
2018-01-11T11:38:27.261Z,30.05
2018-01-11T11:39:31.733Z,31.35
2018-01-11T11:40:36.248Z,33.10
2018-01-11T11:41:40.732Z,28.12
2018-01-11T11:42:45.226Z,36.67
2018-01-11T11:43:49.717Z,30.02
2018-01-11T11:44:54.208Z,32.72
2018-01-11T11:45:59.482Z,30.12
2018-01-11T11:47:04.122Z,28.85
2018-01-11T11:48:08.262Z,33.38
2018-01-11T11:49:13.493Z,30.80
2018-01-11T11:50:18.761Z,31.58
2018-01-11T11:51:23.261Z,29.40
2018-01-11T11:52:27.754Z,34.05
2018-01-11T11:53:32.984Z,35.05
2018-01-11T11:54:38.253Z,34.28
2018-01-11T11:55:42.725Z,30.50
2018-01-11T11:56:48.009Z,37.75
2018-01-11T11:57:53.014Z,36.60
2018-01-11T11:58:57.492Z,36.70
2018-01-11T12:00:02.747Z,37.92
2018-01-11T12:01:07.390Z,32.65
2018-01-11T12:02:11.892Z,33.03
2018-01-11T12:03:16.395Z,31.12
2018-01-11T12:04:20.870Z,35.63
2018-01-11T12:05:26.118Z,35.20
2018-01-11T12:06:30.582Z,32.90
2018-01-11T12:07:35.074Z,38.65
2018-01-11T12:08:39.542Z,34.42
2018-01-11T12:09:44.076Z,33.45
2018-01-11T12:10:48.544Z,31.05
2018-01-11T12:11:53.027Z,36.20
2018-01-11T12:12:57.640Z,34.15
2018-01-11T12:14:02.913Z,38.95
2018-01-11T12:15:08.205Z,32.25
2018-01-11T12:16:12.812Z,35.85
2018-01-11T12:17:17.300Z,36.35
2018-01-11T12:18:21.807Z,36.08
2018-01-11T12:19:26.860Z,33.90
2018-01-11T12:20:31.357Z,35.97
2018-01-11T12:21:35.823Z,35.83
2018-01-11T12:22:41.054Z,33.10
2018-01-11T12:23:47.091Z,33.17
2018-01-11T12:24:52.328Z,35.42
2018-01-11T12:25:57.585Z,33.45
2018-01-11T12:27:02.121Z,35.53
2018-01-11T12:28:06.603Z,36.65
2018-01-11T12:29:11.100Z,34.33
2018-01-11T12:30:16.339Z,35.88
2018-01-11T12:31:21.587Z,39.42
2018-01-11T12:32:26.241Z,34.60
2018-01-11T12:33:30.742Z,34.42
2018-01-11T12:34:35.240Z,34.20
2018-01-11T12:35:39.909Z,38.00
2018-01-11T12:36:45.228Z,35.75
2018-01-11T12:37:49.694Z,34.60
2018-01-11T12:38:54.520Z,38.33
2018-01-11T12:40:00.084Z,37.53
2018-01-11T12:41:04.561Z,39.65
2018-01-11T12:42:09.915Z,38.67
2018-01-11T12:43:14.390Z,35.28
2018-01-11T12:44:18.888Z,32.83
2018-01-11T12:45:23.387Z,39.97
2018-01-11T12:46:27.855Z,36.83
2018-01-11T12:47:33.022Z,36.08
2018-01-11T12:48:37.661Z,35.55
2018-01-11T12:49:42.913Z,33.58
2018-01-11T12:50:47.430Z,37.00
2018-01-11T12:51:51.896Z,37.38
2018-01-11T12:52:56.376Z,34.53
2018-01-11T12:54:00.889Z,40.22
2018-01-11T12:55:05.416Z,38.22
2018-01-11T12:56:10.131Z,34.72
2018-01-11T12:57:14.658Z,37.83
2018-01-11T12:58:19.179Z,37.42
2018-01-11T12:59:23.653Z,36.08
2018-01-11T13:00:28.142Z,35.47
2018-01-11T13:01:32.670Z,36.40
2018-01-11T13:02:37.973Z,34.60
2018-01-11T13:03:43.206Z,39.20
2018-01-11T13:04:47.702Z,38.40
2018-01-11T13:05:52.946Z,37.60
2018-01-11T13:06:58.226Z,37.65
2018-01-11T13:08:02.715Z,35.47
2018-01-11T13:09:07.173Z,38.85
2018-01-11T13:10:11.652Z,35.22
2018-01-11T13:11:16.161Z,37.95
2018-01-11T13:12:20.646Z,36.60
2018-01-11T13:13:25.147Z,39.17
2018-01-11T13:14:30.392Z,35.83
2018-01-11T13:15:34.890Z,37.53
2018-01-11T13:16:39.414Z,41.05
2018-01-11T13:17:43.915Z,38.15
2018-01-11T13:18:48.449Z,35.40
2018-01-11T13:19:53.861Z,38.35
2018-01-11T13:20:58.340Z,37.05
2018-01-11T13:22:02.828Z,38.85
2018-01-11T13:23:07.365Z,40.53
2018-01-11T13:24:12.963Z,41.58
2018-01-11T13:25:17.460Z,40.97
2018-01-11T13:26:21.957Z,36.05
2018-01-11T13:27:26.454Z,37.70
2018-01-11T13:28:31.752Z,40.75
2018-01-11T13:29:36.246Z,40.20
2018-01-11T13:30:40.732Z,41.35
2018-01-11T13:31:45.214Z,40.42
2018-01-11T13:32:50.442Z,35.38
2018-01-11T13:33:55.709Z,36.05
2018-01-11T13:35:00.179Z,34.33
2018-01-11T13:36:05.421Z,36.92
2018-01-11T13:37:10.670Z,38.35
2018-01-11T13:38:15.398Z,38.60
2018-01-11T13:39:19.721Z,38.63
2018-01-11T13:40:24.252Z,41.35
2018-01-11T13:41:28.768Z,37.10
2018-01-11T13:42:33.242Z,38.05
2018-01-11T13:43:37.884Z,32.13
2018-01-11T13:44:42.408Z,35.33
2018-01-11T13:45:46.878Z,31.90
2018-01-11T13:46:51.350Z,34.78
2018-01-11T13:47:55.836Z,34.40
2018-01-11T13:49:00.328Z,35.55
2018-01-11T13:50:04.826Z,38.95
2018-01-11T13:51:09.291Z,38.00
2018-01-11T13:52:13.782Z,37.22
2018-01-11T13:53:18.274Z,33.13
2018-01-11T13:54:22.745Z,31.20